Impacts TAF Board INFO
FOR SITUATIONAL AWARENESS. NOT TO BE USED FOR FLIGHT PLANNING PURPOSES.
IDs:

KJFK - New York/Kennedy Int, NY, US

Issued at 2102 UTC 25 May 2018
Updated at 2235 UTC 25 May 2018
Potential Impact None Slight Moderate High
Time<<26/11Z 26/12Z 26/13Z 26/14Z 26/15Z 26/16Z 26/17Z 26/18Z 26/19Z 26/20Z 26/21Z 26/22Z 26/23Z>>
Type PRVL PRVL
  [TEMP]  
PRVL
  [TEMP]  
PRVL
  [TEMP]  
PRVL PRVL PRVL PRVL PRVL PRVL PRVL PRVL PRVL
VIS >6 >6
  [5]  
>6
  [5]  
>6
  [5]  
>6 >6 >6 >6 >6 >6 >6 >6 >6
CIG -- --
  [--]  
--
  [--]  
--
  [--]  
-- -- -- 150 150 150 150 150 150
Cover SCT SCT
  [SCT]  
SCT
  [SCT]  
SCT
  [SCT]  
SCT SCT SCT BKN BKN BKN BKN BKN BKN
FltCat VFR VFR
  [MVFR]  
VFR
  [MVFR]  
VFR
  [MVFR]  
VFR VFR VFR VFR VFR VFR VFR VFR VFR
WX -- --
  [HZ]  
--
  [HZ]  
--
  [HZ]  
-- -- -- -- -- -- -- -- --
WDir 220 220
[220]
220
[220]
220
[220]
220 220 220 190 190 190 190 190 190
WSpd 8 8
  [8]  
8
  [8]  
8
  [8]  
8 8 8 12 12 12 12 12 12
WGst -- --
  [--]  
--
  [--]  
--
  [--]  
-- -- -- -- -- -- -- -- --

Raw TAF
KJFK 252102Z 2521/2624 19015KT P6SM FEW060 FEW250
  FM260000 20013KT P6SM FEW250
  FM260300 22011KT P6SM FEW250
  FM260600 22008KT P6SM SCT250
  TEMPO 2612/2615 5SM HZ
  FM261800 19012KT P6SM SCT060 BKN150


METAR Board
Radar Display
Forecast Discussion

FOR SITUATIONAL AWARENESS. NOT TO BE USED FOR FLIGHT PLANNING PURPOSES.